createdAt,value
2022-12-18T00:01:35.610Z,4.73
2022-12-18T00:04:11.177Z,4.80
2022-12-18T00:06:37.850Z,4.86
2022-12-18T00:09:04.542Z,4.91
2022-12-18T00:11:31.600Z,4.66
2022-12-18T00:13:59.749Z,4.73
2022-12-18T00:16:27.367Z,4.91
2022-12-18T00:18:55.172Z,4.88
2022-12-18T00:21:22.291Z,4.79
2022-12-18T00:23:49.746Z,4.88
2022-12-18T00:26:26.766Z,4.89
2022-12-18T00:28:56.005Z,4.99
2022-12-18T00:31:24.733Z,5.19
2022-12-18T00:33:55.168Z,5.28
2022-12-18T00:36:24.726Z,5.26
2022-12-18T00:38:53.303Z,5.27
2022-12-18T00:41:38.634Z,5.45
2022-12-18T00:44:06.400Z,5.42
2022-12-18T00:46:33.031Z,5.34
2022-12-18T00:48:59.773Z,5.28
2022-12-18T00:51:27.062Z,5.12
2022-12-18T00:53:53.592Z,5.16
2022-12-18T00:56:23.046Z,5.25
2022-12-18T00:58:49.655Z,5.33
2022-12-18T01:01:16.966Z,5.24
2022-12-18T01:03:45.557Z,5.31
2022-12-18T01:06:13.293Z,5.32
2022-12-18T01:08:39.909Z,5.30
2022-12-18T01:11:10.575Z,5.44
2022-12-18T01:13:38.309Z,5.50
2022-12-18T01:16:05.900Z,5.37
2022-12-18T01:18:35.482Z,5.40
2022-12-18T01:21:06.280Z,5.53
2022-12-18T01:23:33.144Z,5.58
2022-12-18T01:26:12.230Z,5.66
2022-12-18T01:28:39.488Z,5.51
2022-12-18T01:31:16.841Z,5.46
2022-12-18T01:33:43.821Z,5.46
2022-12-18T01:36:15.455Z,5.38
2022-12-18T01:38:42.294Z,5.39
2022-12-18T01:41:08.897Z,5.37
2022-12-18T01:43:42.914Z,5.31
2022-12-18T01:46:09.760Z,5.43
2022-12-18T01:48:36.971Z,5.56
2022-12-18T01:51:05.153Z,5.73
2022-12-18T01:53:32.196Z,5.89
2022-12-18T01:55:59.220Z,6.12
2022-12-18T01:58:45.971Z,6.16
2022-12-18T02:01:13.048Z,5.82
2022-12-18T02:03:41.806Z,5.76
2022-12-18T02:06:21.350Z,5.75
2022-12-18T02:08:58.636Z,5.98
2022-12-18T02:11:25.237Z,6.11
2022-12-18T02:13:51.730Z,5.95
2022-12-18T02:16:30.375Z,5.88
2022-12-18T02:18:59.619Z,5.79
2022-12-18T02:21:37.255Z,5.53
2022-12-18T02:24:06.886Z,5.70
2022-12-18T02:26:38.301Z,5.83
2022-12-18T02:29:17.132Z,5.95
2022-12-18T02:31:47.488Z,5.75
2022-12-18T02:34:15.347Z,5.62
2022-12-18T02:36:44.482Z,5.73
2022-12-18T02:39:12.089Z,5.82
2022-12-18T02:41:42.365Z,5.92
2022-12-18T02:44:10.756Z,5.78
2022-12-18T02:46:42.898Z,5.94
2022-12-18T02:49:11.831Z,6.13
2022-12-18T02:52:01.612Z,5.87
2022-12-18T02:54:31.485Z,5.26
2022-12-18T02:57:03.760Z,4.61
2022-12-18T02:59:45.338Z,4.27
2022-12-18T03:02:24.571Z,4.44
2022-12-18T03:04:59.500Z,4.66
2022-12-18T03:07:28.549Z,4.95
2022-12-18T03:09:56.815Z,5.19
2022-12-18T03:12:28.986Z,5.43
2022-12-18T03:15:15.961Z,5.47
2022-12-18T03:17:47.192Z,5.34
2022-12-18T03:20:15.571Z,5.16
2022-12-18T03:22:43.631Z,4.99
2022-12-18T03:25:13.390Z,4.89
2022-12-18T03:27:42.723Z,4.84
2022-12-18T03:30:12.776Z,4.66
2022-12-18T03:32:50.976Z,4.79
2022-12-18T03:35:23.769Z,4.89
2022-12-18T03:37:50.769Z,4.82
2022-12-18T03:40:18.734Z,4.87
2022-12-18T03:42:45.244Z,4.82
2022-12-18T03:45:19.317Z,4.79
2022-12-18T03:47:47.068Z,5.10
2022-12-18T03:50:17.057Z,4.92
2022-12-18T03:52:50.179Z,4.81
2022-12-18T03:55:18.131Z,4.76
2022-12-18T03:57:46.393Z,5.12
2022-12-18T04:00:14.790Z,5.43
2022-12-18T04:02:52.430Z,5.73
2022-12-18T04:05:24.626Z,5.71
2022-12-18T04:07:51.752Z,5.80
2022-12-18T04:10:19.264Z,5.82
2022-12-18T04:12:46.119Z,5.72
2022-12-18T04:15:13.311Z,5.63
2022-12-18T04:17:47.136Z,5.65
2022-12-18T04:20:13.790Z,5.87
2022-12-18T04:22:42.523Z,5.99
2022-12-18T04:25:11.953Z,5.85
2022-12-18T04:27:41.672Z,5.62
2022-12-18T04:30:08.623Z,5.61
2022-12-18T04:32:35.833Z,5.45
2022-12-18T04:35:04.626Z,5.23
2022-12-18T04:37:32.952Z,5.11
2022-12-18T04:39:59.796Z,4.87
2022-12-18T04:42:32.547Z,4.92
2022-12-18T04:44:59.102Z,4.95
2022-12-18T04:47:25.609Z,4.92
2022-12-18T04:49:52.432Z,4.43
2022-12-18T04:52:19.225Z,4.27
2022-12-18T04:54:45.769Z,4.04
2022-12-18T04:57:12.254Z,4.03
2022-12-18T04:59:38.937Z,3.91
2022-12-18T05:02:06.154Z,4.06
2022-12-18T05:04:33.027Z,4.07
2022-12-18T05:06:59.783Z,3.65
2022-12-18T05:09:26.396Z,3.64
2022-12-18T05:11:52.913Z,3.69
2022-12-18T05:14:19.566Z,3.94
2022-12-18T05:16:46.051Z,4.21
2022-12-18T05:19:12.851Z,4.19
2022-12-18T05:21:40.093Z,4.30
2022-12-18T05:24:06.934Z,4.44
2022-12-18T05:26:33.466Z,4.40
2022-12-18T05:29:00.027Z,4.62
2022-12-18T05:31:26.637Z,4.67
2022-12-18T05:33:53.485Z,4.49
2022-12-18T05:36:19.998Z,4.75
2022-12-18T05:38:46.564Z,4.56
2022-12-18T05:41:13.199Z,4.35
2022-12-18T05:43:40.579Z,4.13
2022-12-18T05:46:09.233Z,3.99
2022-12-18T05:48:36.064Z,4.02
2022-12-18T05:51:07.352Z,3.91
2022-12-18T05:53:35.158Z,3.93
2022-12-18T05:56:03.047Z,4.03
2022-12-18T05:58:30.117Z,3.94
2022-12-18T06:00:56.973Z,3.95
2022-12-18T06:03:26.880Z,3.96
2022-12-18T06:05:57.419Z,4.03
2022-12-18T06:08:24.153Z,4.06
2022-12-18T06:10:52.897Z,4.35
2022-12-18T06:13:20.143Z,4.52
2022-12-18T06:15:46.709Z,4.58
2022-12-18T06:18:13.295Z,4.76
2022-12-18T06:20:41.666Z,4.80
2022-12-18T06:23:08.904Z,4.54
2022-12-18T06:25:37.680Z,4.38
2022-12-18T06:28:04.254Z,4.39
2022-12-18T06:30:32.128Z,4.57
2022-12-18T06:32:58.629Z,4.48
2022-12-18T06:35:25.167Z,4.52
2022-12-18T06:37:51.845Z,4.46
2022-12-18T06:40:19.359Z,4.78
2022-12-18T06:42:45.872Z,4.98
2022-12-18T06:45:15.390Z,5.21
2022-12-18T06:47:42.407Z,5.30
2022-12-18T06:50:09.030Z,5.05
2022-12-18T06:52:35.890Z,4.61
2022-12-18T06:55:03.571Z,4.68
2022-12-18T06:57:30.093Z,4.49
2022-12-18T06:59:57.058Z,4.31
2022-12-18T07:02:23.956Z,4.23
2022-12-18T07:04:50.554Z,4.05
2022-12-18T07:07:17.321Z,4.14
2022-12-18T07:09:43.958Z,4.37
2022-12-18T07:12:10.583Z,4.26
2022-12-18T07:14:37.571Z,4.09
2022-12-18T07:17:04.146Z,4.14
2022-12-18T07:19:31.216Z,4.24
2022-12-18T07:22:01.598Z,4.20
2022-12-18T07:24:28.850Z,4.63
2022-12-18T07:26:55.490Z,4.85
2022-12-18T07:29:22.039Z,5.07
2022-12-18T07:31:49.524Z,5.35
2022-12-18T07:34:16.393Z,5.46
2022-12-18T07:36:43.413Z,5.49
2022-12-18T07:39:11.680Z,5.35
2022-12-18T07:41:41.320Z,5.14
2022-12-18T07:44:12.923Z,5.35
2022-12-18T07:46:39.449Z,5.53
2022-12-18T07:49:06.245Z,5.74
2022-12-18T07:51:32.989Z,5.70
2022-12-18T07:53:59.791Z,5.87
2022-12-18T07:56:28.305Z,5.89
2022-12-18T07:58:56.255Z,5.85
2022-12-18T08:01:23.363Z,5.66
2022-12-18T08:03:51.218Z,5.77
2022-12-18T08:06:19.584Z,5.40
2022-12-18T08:08:49.339Z,5.04
2022-12-18T08:11:17.032Z,4.99
2022-12-18T08:13:43.818Z,4.76
2022-12-18T08:16:10.598Z,4.49
2022-12-18T08:18:37.831Z,4.24
2022-12-18T08:21:10.684Z,4.17
2022-12-18T08:23:42.368Z,3.75
2022-12-18T08:26:10.344Z,3.44
2022-12-18T08:28:36.975Z,3.22
2022-12-18T08:31:04.392Z,3.09
2022-12-18T08:33:31.590Z,3.12
2022-12-18T08:35:59.118Z,3.15
2022-12-18T08:38:25.671Z,3.40
2022-12-18T08:41:11.123Z,3.79
2022-12-18T08:43:56.215Z,4.19
2022-12-18T08:46:24.316Z,4.47
2022-12-18T08:48:51.585Z,4.55
2022-12-18T08:51:18.254Z,4.90
2022-12-18T08:53:45.222Z,5.07
2022-12-18T08:56:12.510Z,5.06
2022-12-18T08:58:39.021Z,5.28
2022-12-18T09:01:07.411Z,5.55
2022-12-18T09:03:34.185Z,5.52
2022-12-18T09:06:01.052Z,5.60
2022-12-18T09:08:28.060Z,5.59
2022-12-18T09:10:55.573Z,5.81
2022-12-18T09:13:22.307Z,6.05
2022-12-18T09:15:50.431Z,6.01
2022-12-18T09:18:17.928Z,6.10
2022-12-18T09:20:44.724Z,6.06
2022-12-18T09:23:11.821Z,5.70
2022-12-18T09:25:38.768Z,5.67
2022-12-18T09:28:15.875Z,5.74
2022-12-18T09:30:43.840Z,5.63
2022-12-18T09:33:11.002Z,5.70
2022-12-18T09:35:41.022Z,5.71
2022-12-18T09:38:10.422Z,5.61
2022-12-18T09:40:42.219Z,5.51
2022-12-18T09:43:14.032Z,5.43
2022-12-18T09:45:51.598Z,5.52
2022-12-18T09:48:27.894Z,5.59
2022-12-18T09:50:58.026Z,5.37
2022-12-18T09:53:27.124Z,5.31
2022-12-18T09:55:55.137Z,5.24
2022-12-18T09:58:21.606Z,5.33
2022-12-18T10:00:48.204Z,5.33
2022-12-18T10:03:15.659Z,5.31
2022-12-18T10:05:46.287Z,5.22
2022-12-18T10:08:17.640Z,5.39
2022-12-18T10:10:49.702Z,5.51
2022-12-18T10:13:29.540Z,5.64
2022-12-18T10:15:56.397Z,5.82
2022-12-18T10:18:30.455Z,6.06
2022-12-18T10:21:13.858Z,6.09
2022-12-18T10:23:48.679Z,6.37
2022-12-18T10:26:15.565Z,6.33
2022-12-18T10:28:44.160Z,6.21
2022-12-18T10:31:20.657Z,6.10
2022-12-18T10:33:47.748Z,6.32
2022-12-18T10:36:14.595Z,6.32
2022-12-18T10:38:42.194Z,6.14
2022-12-18T10:41:19.420Z,6.03
2022-12-18T10:43:48.847Z,6.05
2022-12-18T10:46:17.712Z,5.79
2022-12-18T10:48:47.141Z,5.92
2022-12-18T10:51:24.974Z,6.05
2022-12-18T10:53:54.605Z,5.92
2022-12-18T10:56:21.726Z,5.78
2022-12-18T10:59:02.394Z,6.20
2022-12-18T11:01:31.433Z,6.47
2022-12-18T11:04:02.060Z,6.56
2022-12-18T11:06:38.175Z,6.44
2022-12-18T11:09:12.662Z,6.15
2022-12-18T11:11:40.055Z,5.95
2022-12-18T11:14:11.849Z,6.14
2022-12-18T11:17:03.144Z,5.84
2022-12-18T11:19:35.832Z,5.89
2022-12-18T11:22:17.388Z,5.80
2022-12-18T11:25:22.443Z,5.75
2022-12-18T11:27:39.838Z,5.82
2022-12-18T11:30:10.941Z,5.87
2022-12-18T11:32:39.643Z,6.11
2022-12-18T11:35:12.418Z,6.27
2022-12-18T11:37:42.292Z,6.33
2022-12-18T11:40:18.164Z,6.51
2022-12-18T11:43:20.122Z,6.63
2022-12-18T11:45:53.590Z,6.60
2022-12-18T11:48:22.855Z,6.36
2022-12-18T11:50:51.781Z,6.25
2022-12-18T11:53:18.820Z,6.03
2022-12-18T11:56:04.826Z,5.90
2022-12-18T11:58:48.780Z,6.00
2022-12-18T12:01:28.844Z,6.25
2022-12-18T12:04:22.184Z,6.21
2022-12-18T12:07:03.330Z,6.26
2022-12-18T12:09:44.560Z,6.22
2022-12-18T12:12:16.825Z,6.38
2022-12-18T12:14:49.382Z,6.12
2022-12-18T12:17:27.798Z,5.86
2022-12-18T12:19:54.725Z,5.67
2022-12-18T12:22:30.362Z,5.75
2022-12-18T12:25:00.075Z,5.83
2022-12-18T12:27:29.782Z,5.87
2022-12-18T12:30:02.251Z,5.83
2022-12-18T12:32:35.710Z,5.65
2022-12-18T12:35:10.043Z,5.31
2022-12-18T12:37:52.161Z,5.10
2022-12-18T12:40:50.167Z,5.07
2022-12-18T12:43:27.365Z,5.08
2022-12-18T12:46:01.047Z,5.34
2022-12-18T12:48:33.510Z,5.72
2022-12-18T12:51:08.222Z,5.97
2022-12-18T12:53:37.931Z,6.15
2022-12-18T12:56:06.002Z,6.37
2022-12-18T12:58:45.411Z,6.66
2022-12-18T13:01:24.313Z,6.63
2022-12-18T13:04:03.064Z,6.73
2022-12-18T13:06:44.565Z,6.98
2022-12-18T13:09:11.491Z,7.18
2022-12-18T13:12:02.522Z,7.21
2022-12-18T13:14:40.328Z,6.93
2022-12-18T13:17:27.896Z,7.08
2022-12-18T13:20:03.634Z,7.13
2022-12-18T13:22:34.492Z,6.80
2022-12-18T13:25:01.418Z,6.41
2022-12-18T13:27:43.589Z,6.36
2022-12-18T13:30:29.480Z,6.50
2022-12-18T13:33:14.037Z,6.58
2022-12-18T13:35:41.084Z,6.75
2022-12-18T13:38:34.774Z,6.83
2022-12-18T13:41:04.651Z,6.87
2022-12-18T13:43:33.939Z,6.88
2022-12-18T13:46:18.554Z,6.97
2022-12-18T13:48:57.144Z,6.97
2022-12-18T13:51:24.530Z,7.13
2022-12-18T13:53:54.082Z,7.23
2022-12-18T13:56:29.425Z,7.21
2022-12-18T13:59:13.159Z,6.85
2022-12-18T14:01:53.920Z,6.29
2022-12-18T14:04:23.429Z,6.04
2022-12-18T14:06:51.969Z,5.63
2022-12-18T14:09:22.126Z,5.63
2022-12-18T14:11:49.899Z,5.46
2022-12-18T14:14:17.661Z,5.25
2022-12-18T14:16:44.709Z,4.71
2022-12-18T14:19:17.363Z,4.40
2022-12-18T14:21:48.556Z,4.43
2022-12-18T14:24:19.514Z,4.29
2022-12-18T14:26:47.481Z,3.92
2022-12-18T14:29:17.756Z,3.78
2022-12-18T14:31:44.696Z,3.73
2022-12-18T14:34:17.505Z,3.64
2022-12-18T14:36:52.584Z,3.81
2022-12-18T14:39:19.761Z,3.90
2022-12-18T14:41:48.962Z,3.81
2022-12-18T14:44:16.003Z,3.81
2022-12-18T14:46:46.678Z,3.78
2022-12-18T14:49:25.189Z,3.87
2022-12-18T14:52:02.509Z,3.75
2022-12-18T14:54:30.145Z,3.68
2022-12-18T14:56:59.855Z,3.53
2022-12-18T14:59:27.211Z,3.37
2022-12-18T15:01:54.179Z,3.43
2022-12-18T15:04:42.500Z,3.54
2022-12-18T15:07:11.313Z,3.59
2022-12-18T15:09:38.998Z,3.35
2022-12-18T15:12:05.948Z,3.26
2022-12-18T15:14:39.645Z,3.20
2022-12-18T15:17:20.241Z,3.33
2022-12-18T15:19:48.565Z,3.12
2022-12-18T15:22:19.009Z,2.90
2022-12-18T15:24:45.702Z,2.52
2022-12-18T15:27:25.020Z,2.19
2022-12-18T15:30:17.485Z,2.31
2022-12-18T15:32:45.387Z,2.15
2022-12-18T15:35:30.427Z,2.12
2022-12-18T15:37:57.190Z,1.96
2022-12-18T15:40:24.773Z,1.62
2022-12-18T15:43:12.690Z,1.59
2022-12-18T15:45:39.989Z,1.68
2022-12-18T15:48:20.726Z,1.84
2022-12-18T15:50:47.752Z,2.01
2022-12-18T15:53:14.710Z,2.04
2022-12-18T15:56:01.375Z,1.90
2022-12-18T15:58:28.349Z,1.88
2022-12-18T16:00:56.526Z,2.03
2022-12-18T16:03:23.033Z,2.02
2022-12-18T16:05:50.201Z,2.06
2022-12-18T16:08:16.882Z,2.19
2022-12-18T16:10:44.297Z,2.32
2022-12-18T16:13:12.111Z,2.60
2022-12-18T16:15:39.098Z,2.79
2022-12-18T16:18:06.047Z,2.87
2022-12-18T16:20:33.062Z,2.91
2022-12-18T16:23:00.224Z,2.84
2022-12-18T16:25:28.589Z,2.65
2022-12-18T16:27:56.578Z,2.61
2022-12-18T16:30:25.826Z,2.52
2022-12-18T16:32:57.440Z,2.73
2022-12-18T16:35:25.375Z,2.95
2022-12-18T16:37:52.453Z,3.07
2022-12-18T16:40:19.319Z,3.11
2022-12-18T16:42:46.439Z,2.89
2022-12-18T16:45:15.230Z,2.73
2022-12-18T16:47:42.254Z,2.87
2022-12-18T16:50:09.535Z,2.87
2022-12-18T16:52:36.499Z,2.96
2022-12-18T16:55:03.821Z,3.15
2022-12-18T16:57:30.768Z,3.35
2022-12-18T17:00:04.397Z,3.30
2022-12-18T17:02:32.945Z,3.37
2022-12-18T17:05:00.511Z,3.31
2022-12-18T17:07:27.967Z,3.21
2022-12-18T17:09:55.548Z,3.22
2022-12-18T17:12:22.808Z,3.19
2022-12-18T17:14:50.014Z,2.76
2022-12-18T17:17:22.321Z,2.77
2022-12-18T17:19:50.993Z,2.78
2022-12-18T17:22:18.538Z,2.86
2022-12-18T17:24:46.503Z,2.91
2022-12-18T17:27:14.476Z,3.08
2022-12-18T17:29:47.212Z,3.18
2022-12-18T17:32:15.413Z,2.93
2022-12-18T17:34:42.098Z,3.13
2022-12-18T17:37:08.625Z,3.30
2022-12-18T17:39:35.340Z,3.18
2022-12-18T17:42:01.943Z,3.14
2022-12-18T17:44:29.085Z,2.98
2022-12-18T17:46:55.678Z,2.73
2022-12-18T17:49:22.597Z,2.43
2022-12-18T17:51:49.539Z,2.17
2022-12-18T17:54:16.728Z,2.50
2022-12-18T17:56:44.248Z,3.00
2022-12-18T17:59:11.911Z,3.29
2022-12-18T18:01:44.114Z,3.42
2022-12-18T18:04:11.883Z,3.49
2022-12-18T18:06:39.291Z,3.53
2022-12-18T18:09:15.278Z,3.51
2022-12-18T18:12:03.001Z,3.59
2022-12-18T18:14:30.240Z,3.63
2022-12-18T18:16:57.134Z,3.65
2022-12-18T18:19:25.315Z,3.71
2022-12-18T18:21:52.952Z,3.86
2022-12-18T18:24:22.665Z,3.84
2022-12-18T18:26:49.318Z,3.52
2022-12-18T18:29:18.136Z,3.25
2022-12-18T18:31:45.224Z,3.25
2022-12-18T18:34:16.117Z,2.97
2022-12-18T18:36:42.990Z,2.88
2022-12-18T18:39:09.521Z,2.97
2022-12-18T18:41:37.491Z,3.12
2022-12-18T18:44:04.582Z,3.09
2022-12-18T18:46:31.144Z,2.86
2022-12-18T18:48:57.782Z,2.53
2022-12-18T18:51:24.519Z,2.19
2022-12-18T18:53:54.743Z,1.74
2022-12-18T18:59:09.211Z,1.65
2022-12-18T19:01:35.850Z,1.53
2022-12-18T19:04:04.959Z,1.60
2022-12-18T19:06:31.564Z,1.71
2022-12-18T19:09:01.190Z,2.00
2022-12-18T19:11:46.762Z,1.97
2022-12-18T19:14:14.398Z,1.95
2022-12-18T19:16:41.418Z,1.64
2022-12-18T19:19:08.137Z,1.58
2022-12-18T19:21:37.007Z,1.57
2022-12-18T19:24:04.805Z,1.51
2022-12-18T19:26:31.746Z,1.52
2022-12-18T19:29:02.801Z,1.79
2022-12-18T19:31:35.166Z,2.00
2022-12-18T19:34:04.309Z,2.22
2022-12-18T19:36:31.565Z,2.39
2022-12-18T19:38:59.836Z,2.70
2022-12-18T19:41:27.581Z,2.85
2022-12-18T19:43:58.045Z,2.89
2022-12-18T19:46:24.815Z,3.12
2022-12-18T19:48:51.920Z,3.43
2022-12-18T19:51:26.790Z,3.32
2022-12-18T19:53:58.608Z,3.02
2022-12-18T19:56:27.593Z,2.74
2022-12-18T19:58:54.614Z,2.56
2022-12-18T20:01:22.287Z,2.06
2022-12-18T20:03:52.433Z,1.86
2022-12-18T20:06:20.413Z,1.94
2022-12-18T20:08:46.931Z,2.15
2022-12-18T20:11:13.453Z,2.16
2022-12-18T20:13:40.387Z,2.22
2022-12-18T20:16:07.386Z,2.40
2022-12-18T20:18:34.331Z,2.61
2022-12-18T20:21:01.121Z,2.55
2022-12-18T20:23:30.318Z,2.35
2022-12-18T20:25:59.370Z,2.48
2022-12-18T20:28:26.176Z,2.45
2022-12-18T20:30:58.937Z,2.42
2022-12-18T20:33:25.698Z,2.71
2022-12-18T20:35:52.409Z,2.65
2022-12-18T20:38:19.763Z,2.69
2022-12-18T20:40:47.128Z,2.39
2022-12-18T20:43:17.103Z,1.97
2022-12-18T20:45:44.099Z,1.97
2022-12-18T20:48:12.681Z,1.74
2022-12-18T20:50:39.502Z,1.14
2022-12-18T20:53:06.042Z,0.90
2022-12-18T20:55:32.641Z,0.83
2022-12-18T20:57:59.769Z,0.67
2022-12-18T21:00:26.340Z,0.63
2022-12-18T21:02:53.413Z,0.77
2022-12-18T21:05:20.096Z,0.70
2022-12-18T21:07:46.885Z,0.68
2022-12-18T21:10:13.439Z,1.00
2022-12-18T21:12:58.719Z,1.02
2022-12-18T21:15:29.054Z,1.31
2022-12-18T21:17:55.691Z,1.63
2022-12-18T21:20:22.589Z,1.69
2022-12-18T21:22:49.747Z,1.42
2022-12-18T21:25:16.675Z,0.88
2022-12-18T21:27:43.507Z,0.36
2022-12-18T21:30:10.382Z,0.07
2022-12-18T21:32:37.247Z,-0.12
2022-12-18T21:35:04.008Z,0.13
2022-12-18T21:37:30.730Z,0.70
2022-12-18T21:39:57.315Z,1.02
2022-12-18T21:42:42.792Z,1.52
2022-12-18T21:45:11.517Z,1.39
2022-12-18T21:47:38.067Z,1.43
2022-12-18T21:50:05.267Z,1.41
2022-12-18T21:52:32.913Z,1.41
2022-12-18T21:55:04.813Z,1.20
2022-12-18T21:57:36.028Z,0.91
2022-12-18T22:00:03.495Z,1.18
2022-12-18T22:02:38.783Z,1.57
2022-12-18T22:05:05.868Z,1.80
2022-12-18T22:07:32.719Z,1.87
2022-12-18T22:09:59.351Z,1.78
2022-12-18T22:12:41.623Z,2.01
2022-12-18T22:15:13.186Z,2.37
2022-12-18T22:17:49.811Z,2.03
2022-12-18T22:20:16.866Z,1.26
2022-12-18T22:22:43.576Z,1.29
2022-12-18T22:25:10.391Z,1.35
2022-12-18T22:27:37.314Z,1.39
2022-12-18T22:30:04.800Z,1.24
2022-12-18T22:32:35.195Z,1.41
2022-12-18T22:35:09.225Z,1.52
2022-12-18T22:37:39.658Z,1.48
2022-12-18T22:40:07.463Z,1.54
2022-12-18T22:42:35.293Z,1.67
2022-12-18T22:45:01.844Z,1.37
2022-12-18T22:47:30.345Z,1.34
2022-12-18T22:49:57.668Z,1.54
2022-12-18T22:52:24.850Z,1.27
2022-12-18T22:54:53.741Z,1.18
2022-12-18T22:57:21.249Z,0.63
2022-12-18T22:59:48.711Z,0.34
2022-12-18T23:02:17.019Z,0.69
2022-12-18T23:04:44.374Z,1.12
2022-12-18T23:07:11.099Z,1.28
2022-12-18T23:09:39.606Z,1.35
2022-12-18T23:12:06.299Z,1.15
2022-12-18T23:14:33.030Z,0.71
2022-12-18T23:16:59.536Z,0.56
2022-12-18T23:19:26.085Z,0.74
2022-12-18T23:21:52.727Z,0.93
2022-12-18T23:24:21.428Z,1.38
2022-12-18T23:26:47.935Z,1.66
2022-12-18T23:29:14.687Z,1.68
2022-12-18T23:31:41.581Z,1.29
2022-12-18T23:34:11.241Z,0.90
2022-12-18T23:36:45.577Z,0.81
2022-12-18T23:39:24.385Z,0.78
2022-12-18T23:41:57.352Z,0.58
2022-12-18T23:44:24.369Z,0.64
2022-12-18T23:46:51.057Z,0.56
2022-12-18T23:49:17.881Z,0.41
2022-12-18T23:51:44.684Z,0.63
2022-12-18T23:54:11.262Z,0.60
2022-12-18T23:56:38.237Z,0.12
2022-12-18T23:59:04.846Z,0.22
